sensor_id;sensor_type;location;lat;lon;timestamp;P1;durP1;ratioP1;P2;durP2;ratioP2
16391;SDS011;8305;-33.882;151.134;2023-06-26T00:01:36;3.65;;;0.70;;
16391;SDS011;8305;-33.882;151.134;2023-06-26T00:04:07;0.80;;;0.40;;
16391;SDS011;8305;-33.882;151.134;2023-06-26T00:06:40;0.95;;;0.40;;
16391;SDS011;8305;-33.882;151.134;2023-06-26T00:09:13;0.95;;;0.30;;
16391;SDS011;8305;-33.882;151.134;2023-06-26T00:11:44;1.35;;;0.30;;
16391;SDS011;8305;-33.882;151.134;2023-06-26T00:14:15;1.15;;;0.40;;
16391;SDS011;8305;-33.882;151.134;2023-06-26T00:16:47;2.40;;;0.43;;
16391;SDS011;8305;-33.882;151.134;2023-06-26T00:19:17;2.05;;;0.60;;
16391;SDS011;8305;-33.882;151.134;2023-06-26T00:21:48;0.88;;;0.40;;
16391;SDS011;8305;-33.882;151.134;2023-06-26T00:24:21;1.83;;;0.60;;
16391;SDS011;8305;-33.882;151.134;2023-06-26T00:26:52;1.92;;;0.40;;
16391;SDS011;8305;-33.882;151.134;2023-06-26T00:29:23;3.00;;;0.60;;
16391;SDS011;8305;-33.882;151.134;2023-06-26T00:31:53;2.70;;;0.60;;
16391;SDS011;8305;-33.882;151.134;2023-06-26T00:34:24;0.55;;;0.40;;
16391;SDS011;8305;-33.882;151.134;2023-06-26T00:36:55;1.60;;;0.60;;
16391;SDS011;8305;-33.882;151.134;2023-06-26T00:39:28;1.52;;;0.47;;
16391;SDS011;8305;-33.882;151.134;2023-06-26T00:41:59;2.75;;;0.80;;
16391;SDS011;8305;-33.882;151.134;2023-06-26T00:44:30;1.92;;;0.60;;
16391;SDS011;8305;-33.882;151.134;2023-06-26T00:47:01;1.40;;;0.50;;
16391;SDS011;8305;-33.882;151.134;2023-06-26T00:49:32;1.30;;;0.30;;
16391;SDS011;8305;-33.882;151.134;2023-06-26T00:52:03;1.50;;;0.30;;
16391;SDS011;8305;-33.882;151.134;2023-06-26T00:54:36;1.85;;;0.50;;
16391;SDS011;8305;-33.882;151.134;2023-06-26T00:57:08;0.55;;;0.25;;
16391;SDS011;8305;-33.882;151.134;2023-06-26T00:59:39;1.67;;;0.45;;
16391;SDS011;8305;-33.882;151.134;2023-06-26T01:02:09;2.05;;;0.52;;
16391;SDS011;8305;-33.882;151.134;2023-06-26T01:04:46;1.75;;;0.40;;
16391;SDS011;8305;-33.882;151.134;2023-06-26T01:07:17;2.30;;;0.40;;
16391;SDS011;8305;-33.882;151.134;2023-06-26T01:09:52;1.05;;;0.40;;
16391;SDS011;8305;-33.882;151.134;2023-06-26T01:12:23;1.70;;;0.50;;
16391;SDS011;8305;-33.882;151.134;2023-06-26T01:14:57;1.95;;;0.50;;
16391;SDS011;8305;-33.882;151.134;2023-06-26T01:17:28;1.17;;;0.40;;
16391;SDS011;8305;-33.882;151.134;2023-06-26T01:20:00;1.60;;;0.50;;
16391;SDS011;8305;-33.882;151.134;2023-06-26T01:22:36;1.75;;;0.50;;
16391;SDS011;8305;-33.882;151.134;2023-06-26T01:25:17;1.90;;;0.52;;
16391;SDS011;8305;-33.882;151.134;2023-06-26T01:27:53;1.55;;;0.40;;
16391;SDS011;8305;-33.882;151.134;2023-06-26T01:30:24;1.38;;;0.40;;
16391;SDS011;8305;-33.882;151.134;2023-06-26T01:32:57;2.35;;;0.50;;
16391;SDS011;8305;-33.882;151.134;2023-06-26T01:35:28;0.77;;;0.50;;
16391;SDS011;8305;-33.882;151.134;2023-06-26T01:38:11;2.15;;;0.40;;
16391;SDS011;8305;-33.882;151.134;2023-06-26T01:40:43;3.78;;;0.40;;
16391;SDS011;8305;-33.882;151.134;2023-06-26T01:43:18;2.15;;;0.50;;
16391;SDS011;8305;-33.882;151.134;2023-06-26T01:45:54;4.75;;;0.43;;
16391;SDS011;8305;-33.882;151.134;2023-06-26T01:48:30;2.00;;;0.40;;
16391;SDS011;8305;-33.882;151.134;2023-06-26T01:51:03;2.42;;;0.45;;
16391;SDS011;8305;-33.882;151.134;2023-06-26T01:53:38;2.47;;;0.32;;
16391;SDS011;8305;-33.882;151.134;2023-06-26T01:56:14;0.80;;;0.50;;
16391;SDS011;8305;-33.882;151.134;2023-06-26T01:58:49;2.78;;;0.55;;
16391;SDS011;8305;-33.882;151.134;2023-06-26T02:01:21;3.83;;;0.70;;
16391;SDS011;8305;-33.882;151.134;2023-06-26T02:03:52;1.00;;;0.40;;
16391;SDS011;8305;-33.882;151.134;2023-06-26T02:06:22;4.05;;;0.63;;
16391;SDS011;8305;-33.882;151.134;2023-06-26T02:08:53;1.35;;;0.32;;
16391;SDS011;8305;-33.882;151.134;2023-06-26T02:11:24;1.73;;;0.50;;
16391;SDS011;8305;-33.882;151.134;2023-06-26T02:13:57;3.00;;;0.82;;
16391;SDS011;8305;-33.882;151.134;2023-06-26T02:16:29;2.42;;;0.75;;
16391;SDS011;8305;-33.882;151.134;2023-06-26T02:18:59;1.23;;;0.40;;
16391;SDS011;8305;-33.882;151.134;2023-06-26T02:21:30;1.88;;;0.50;;
16391;SDS011;8305;-33.882;151.134;2023-06-26T02:24:02;2.28;;;0.40;;
16391;SDS011;8305;-33.882;151.134;2023-06-26T02:26:33;0.82;;;0.50;;
16391;SDS011;8305;-33.882;151.134;2023-06-26T02:29:05;1.33;;;0.47;;
16391;SDS011;8305;-33.882;151.134;2023-06-26T02:31:36;3.30;;;0.50;;
16391;SDS011;8305;-33.882;151.134;2023-06-26T02:34:07;2.40;;;0.40;;
16391;SDS011;8305;-33.882;151.134;2023-06-26T02:36:38;1.65;;;0.43;;
16391;SDS011;8305;-33.882;151.134;2023-06-26T02:39:08;2.10;;;0.90;;
16391;SDS011;8305;-33.882;151.134;2023-06-26T02:41:40;3.53;;;0.55;;
16391;SDS011;8305;-33.882;151.134;2023-06-26T02:44:13;0.63;;;0.35;;
16391;SDS011;8305;-33.882;151.134;2023-06-26T02:46:44;0.40;;;0.20;;
16391;SDS011;8305;-33.882;151.134;2023-06-26T02:49:15;9.13;;;0.90;;
16391;SDS011;8305;-33.882;151.134;2023-06-26T02:51:45;1.55;;;0.40;;
16391;SDS011;8305;-33.882;151.134;2023-06-26T02:54:16;1.42;;;0.60;;
16391;SDS011;8305;-33.882;151.134;2023-06-26T02:56:47;1.05;;;0.40;;
16391;SDS011;8305;-33.882;151.134;2023-06-26T02:59:20;1.88;;;0.40;;
16391;SDS011;8305;-33.882;151.134;2023-06-26T03:01:51;1.05;;;0.28;;
16391;SDS011;8305;-33.882;151.134;2023-06-26T03:04:21;1.85;;;0.40;;
16391;SDS011;8305;-33.882;151.134;2023-06-26T03:06:52;1.92;;;0.50;;
16391;SDS011;8305;-33.882;151.134;2023-06-26T03:09:23;1.95;;;0.35;;
16391;SDS011;8305;-33.882;151.134;2023-06-26T03:11:54;0.50;;;0.30;;
16391;SDS011;8305;-33.882;151.134;2023-06-26T03:14:27;1.38;;;0.38;;
16391;SDS011;8305;-33.882;151.134;2023-06-26T03:16:58;0.85;;;0.30;;
16391;SDS011;8305;-33.882;151.134;2023-06-26T03:19:29;1.58;;;0.30;;
16391;SDS011;8305;-33.882;151.134;2023-06-26T03:22:00;0.82;;;0.30;;
16391;SDS011;8305;-33.882;151.134;2023-06-26T03:24:32;0.52;;;0.32;;
16391;SDS011;8305;-33.882;151.134;2023-06-26T03:27:02;1.35;;;0.30;;
16391;SDS011;8305;-33.882;151.134;2023-06-26T03:29:37;0.88;;;0.40;;
16391;SDS011;8305;-33.882;151.134;2023-06-26T03:32:08;0.50;;;0.22;;
16391;SDS011;8305;-33.882;151.134;2023-06-26T03:34:39;1.60;;;0.40;;
16391;SDS011;8305;-33.882;151.134;2023-06-26T03:37:10;1.50;;;0.30;;
16391;SDS011;8305;-33.882;151.134;2023-06-26T03:39:41;1.45;;;0.30;;
16391;SDS011;8305;-33.882;151.134;2023-06-26T03:42:12;0.65;;;0.30;;
16391;SDS011;8305;-33.882;151.134;2023-06-26T03:44:44;2.15;;;0.35;;
16391;SDS011;8305;-33.882;151.134;2023-06-26T03:47:15;1.08;;;0.30;;
16391;SDS011;8305;-33.882;151.134;2023-06-26T03:49:46;1.55;;;0.40;;
16391;SDS011;8305;-33.882;151.134;2023-06-26T03:52:17;2.60;;;0.40;;
16391;SDS011;8305;-33.882;151.134;2023-06-26T03:54:48;2.35;;;0.43;;
16391;SDS011;8305;-33.882;151.134;2023-06-26T03:57:18;2.75;;;0.52;;
16391;SDS011;8305;-33.882;151.134;2023-06-26T03:59:52;0.73;;;0.30;;
16391;SDS011;8305;-33.882;151.134;2023-06-26T04:02:22;2.33;;;0.57;;
16391;SDS011;8305;-33.882;151.134;2023-06-26T04:04:53;2.47;;;0.43;;
16391;SDS011;8305;-33.882;151.134;2023-06-26T04:07:24;2.70;;;0.50;;
16391;SDS011;8305;-33.882;151.134;2023-06-26T04:09:55;0.63;;;0.30;;
16391;SDS011;8305;-33.882;151.134;2023-06-26T04:12:26;0.65;;;0.32;;
16391;SDS011;8305;-33.882;151.134;2023-06-26T04:14:58;0.73;;;0.30;;
16391;SDS011;8305;-33.882;151.134;2023-06-26T04:17:29;1.02;;;0.50;;
16391;SDS011;8305;-33.882;151.134;2023-06-26T04:20:00;3.10;;;0.43;;
16391;SDS011;8305;-33.882;151.134;2023-06-26T04:22:33;2.05;;;0.32;;
16391;SDS011;8305;-33.882;151.134;2023-06-26T04:25:04;1.17;;;0.40;;
16391;SDS011;8305;-33.882;151.134;2023-06-26T04:27:35;0.90;;;0.40;;
16391;SDS011;8305;-33.882;151.134;2023-06-26T04:30:08;0.82;;;0.50;;
16391;SDS011;8305;-33.882;151.134;2023-06-26T04:32:40;1.05;;;0.30;;
16391;SDS011;8305;-33.882;151.134;2023-06-26T04:35:11;1.77;;;0.35;;
16391;SDS011;8305;-33.882;151.134;2023-06-26T04:37:42;1.67;;;0.50;;
16391;SDS011;8305;-33.882;151.134;2023-06-26T04:40:12;3.40;;;0.60;;
16391;SDS011;8305;-33.882;151.134;2023-06-26T04:42:43;1.63;;;0.40;;
16391;SDS011;8305;-33.882;151.134;2023-06-26T04:45:16;1.75;;;0.32;;
16391;SDS011;8305;-33.882;151.134;2023-06-26T04:47:47;3.45;;;0.60;;
16391;SDS011;8305;-33.882;151.134;2023-06-26T04:50:17;3.03;;;0.55;;
16391;SDS011;8305;-33.882;151.134;2023-06-26T04:52:48;3.30;;;0.50;;
16391;SDS011;8305;-33.882;151.134;2023-06-26T04:55:19;4.78;;;0.50;;
16391;SDS011;8305;-33.882;151.134;2023-06-26T04:57:50;2.13;;;0.63;;
16391;SDS011;8305;-33.882;151.134;2023-06-26T05:00:22;2.72;;;0.40;;
16391;SDS011;8305;-33.882;151.134;2023-06-26T05:02:53;2.42;;;0.55;;
16391;SDS011;8305;-33.882;151.134;2023-06-26T05:05:27;1.15;;;0.20;;
16391;SDS011;8305;-33.882;151.134;2023-06-26T05:07:58;2.13;;;0.50;;
16391;SDS011;8305;-33.882;151.134;2023-06-26T05:10:41;1.48;;;0.30;;
16391;SDS011;8305;-33.882;151.134;2023-06-26T05:13:12;0.55;;;0.32;;
16391;SDS011;8305;-33.882;151.134;2023-06-26T05:15:48;1.30;;;0.40;;
16391;SDS011;8305;-33.882;151.134;2023-06-26T05:18:19;3.05;;;0.77;;
16391;SDS011;8305;-33.882;151.134;2023-06-26T05:20:50;2.60;;;0.50;;
16391;SDS011;8305;-33.882;151.134;2023-06-26T05:23:21;2.25;;;0.40;;
16391;SDS011;8305;-33.882;151.134;2023-06-26T05:25:55;5.85;;;0.40;;
16391;SDS011;8305;-33.882;151.134;2023-06-26T05:28:27;1.77;;;0.43;;
16391;SDS011;8305;-33.882;151.134;2023-06-26T05:31:01;1.42;;;0.30;;
16391;SDS011;8305;-33.882;151.134;2023-06-26T05:33:33;2.33;;;0.50;;
16391;SDS011;8305;-33.882;151.134;2023-06-26T05:36:06;1.35;;;0.50;;
16391;SDS011;8305;-33.882;151.134;2023-06-26T05:38:38;1.98;;;0.40;;
16391;SDS011;8305;-33.882;151.134;2023-06-26T05:41:09;1.08;;;0.40;;
16391;SDS011;8305;-33.882;151.134;2023-06-26T05:43:40;2.40;;;0.50;;
16391;SDS011;8305;-33.882;151.134;2023-06-26T05:46:13;0.77;;;0.40;;
16391;SDS011;8305;-33.882;151.134;2023-06-26T05:48:44;2.92;;;0.40;;
16391;SDS011;8305;-33.882;151.134;2023-06-26T05:51:15;1.17;;;0.30;;
16391;SDS011;8305;-33.882;151.134;2023-06-26T05:53:46;3.90;;;0.40;;
16391;SDS011;8305;-33.882;151.134;2023-06-26T05:56:17;4.15;;;0.60;;
16391;SDS011;8305;-33.882;151.134;2023-06-26T05:58:49;1.85;;;0.40;;
16391;SDS011;8305;-33.882;151.134;2023-06-26T06:01:22;2.15;;;0.30;;
16391;SDS011;8305;-33.882;151.134;2023-06-26T06:03:53;1.45;;;0.50;;
16391;SDS011;8305;-33.882;151.134;2023-06-26T06:06:23;1.92;;;0.40;;
16391;SDS011;8305;-33.882;151.134;2023-06-26T06:08:54;3.13;;;0.32;;
16391;SDS011;8305;-33.882;151.134;2023-06-26T06:11:25;2.42;;;0.50;;
16391;SDS011;8305;-33.882;151.134;2023-06-26T06:13:56;2.65;;;0.40;;
16391;SDS011;8305;-33.882;151.134;2023-06-26T06:16:29;0.93;;;0.40;;
16391;SDS011;8305;-33.882;151.134;2023-06-26T06:18:59;0.85;;;0.32;;
16391;SDS011;8305;-33.882;151.134;2023-06-26T06:21:33;1.35;;;0.50;;
16391;SDS011;8305;-33.882;151.134;2023-06-26T06:24:03;3.08;;;0.50;;
16391;SDS011;8305;-33.882;151.134;2023-06-26T06:26:35;2.72;;;0.50;;
16391;SDS011;8305;-33.882;151.134;2023-06-26T06:29:06;2.40;;;0.50;;
16391;SDS011;8305;-33.882;151.134;2023-06-26T06:31:39;1.38;;;0.45;;
16391;SDS011;8305;-33.882;151.134;2023-06-26T06:34:09;2.45;;;0.63;;
16391;SDS011;8305;-33.882;151.134;2023-06-26T06:36:40;0.50;;;0.50;;
16391;SDS011;8305;-33.882;151.134;2023-06-26T06:39:11;1.02;;;0.47;;
16391;SDS011;8305;-33.882;151.134;2023-06-26T06:41:42;3.45;;;0.60;;
16391;SDS011;8305;-33.882;151.134;2023-06-26T06:44:13;1.40;;;0.38;;
16391;SDS011;8305;-33.882;151.134;2023-06-26T06:46:46;2.25;;;0.50;;
16391;SDS011;8305;-33.882;151.134;2023-06-26T06:49:16;2.65;;;0.90;;
16391;SDS011;8305;-33.882;151.134;2023-06-26T06:51:48;3.58;;;0.98;;
16391;SDS011;8305;-33.882;151.134;2023-06-26T06:54:18;0.80;;;0.50;;
16391;SDS011;8305;-33.882;151.134;2023-06-26T06:56:49;6.13;;;0.63;;
16391;SDS011;8305;-33.882;151.134;2023-06-26T06:59:20;1.13;;;0.40;;
16391;SDS011;8305;-33.882;151.134;2023-06-26T07:01:53;1.73;;;0.38;;
16391;SDS011;8305;-33.882;151.134;2023-06-26T07:04:23;1.55;;;0.40;;
16391;SDS011;8305;-33.882;151.134;2023-06-26T07:06:54;0.85;;;0.40;;
16391;SDS011;8305;-33.882;151.134;2023-06-26T07:09:25;1.70;;;0.60;;
16391;SDS011;8305;-33.882;151.134;2023-06-26T07:11:56;1.30;;;0.52;;
16391;SDS011;8305;-33.882;151.134;2023-06-26T07:14:26;1.52;;;0.47;;
16391;SDS011;8305;-33.882;151.134;2023-06-26T07:16:59;1.88;;;0.50;;
16391;SDS011;8305;-33.882;151.134;2023-06-26T07:19:30;2.05;;;0.40;;
16391;SDS011;8305;-33.882;151.134;2023-06-26T07:22:00;1.30;;;0.40;;
16391;SDS011;8305;-33.882;151.134;2023-06-26T07:24:31;1.92;;;0.60;;
16391;SDS011;8305;-33.882;151.134;2023-06-26T07:27:02;3.50;;;0.50;;
16391;SDS011;8305;-33.882;151.134;2023-06-26T07:29:33;0.75;;;0.40;;
16391;SDS011;8305;-33.882;151.134;2023-06-26T07:32:06;1.08;;;0.50;;
16391;SDS011;8305;-33.882;151.134;2023-06-26T07:34:37;1.70;;;0.40;;
16391;SDS011;8305;-33.882;151.134;2023-06-26T07:37:08;1.15;;;0.40;;
16391;SDS011;8305;-33.882;151.134;2023-06-26T07:39:38;2.97;;;0.50;;
16391;SDS011;8305;-33.882;151.134;2023-06-26T07:42:09;2.50;;;0.40;;
16391;SDS011;8305;-33.882;151.134;2023-06-26T07:44:41;2.17;;;0.40;;
16391;SDS011;8305;-33.882;151.134;2023-06-26T07:47:13;1.90;;;0.70;;
16391;SDS011;8305;-33.882;151.134;2023-06-26T07:49:44;1.08;;;0.50;;
16391;SDS011;8305;-33.882;151.134;2023-06-26T07:52:15;2.15;;;0.70;;
16391;SDS011;8305;-33.882;151.134;2023-06-26T07:54:47;0.57;;;0.45;;
16391;SDS011;8305;-33.882;151.134;2023-06-26T07:57:17;1.25;;;0.45;;
16391;SDS011;8305;-33.882;151.134;2023-06-26T07:59:48;1.17;;;0.50;;
16391;SDS011;8305;-33.882;151.134;2023-06-26T08:02:21;1.98;;;0.40;;
16391;SDS011;8305;-33.882;151.134;2023-06-26T08:04:52;0.90;;;0.57;;
16391;SDS011;8305;-33.882;151.134;2023-06-26T08:07:23;1.80;;;0.55;;
16391;SDS011;8305;-33.882;151.134;2023-06-26T08:09:53;1.40;;;0.50;;
16391;SDS011;8305;-33.882;151.134;2023-06-26T08:12:24;2.05;;;0.60;;
16391;SDS011;8305;-33.882;151.134;2023-06-26T08:14:55;2.28;;;0.80;;
16391;SDS011;8305;-33.882;151.134;2023-06-26T08:17:29;3.70;;;0.50;;
16391;SDS011;8305;-33.882;151.134;2023-06-26T08:19:59;1.77;;;0.50;;
16391;SDS011;8305;-33.882;151.134;2023-06-26T08:22:30;1.75;;;0.60;;
16391;SDS011;8305;-33.882;151.134;2023-06-26T08:25:02;2.70;;;0.60;;
16391;SDS011;8305;-33.882;151.134;2023-06-26T08:27:33;2.30;;;0.70;;
16391;SDS011;8305;-33.882;151.134;2023-06-26T08:30:04;2.42;;;0.60;;
16391;SDS011;8305;-33.882;151.134;2023-06-26T08:32:37;2.75;;;0.65;;
16391;SDS011;8305;-33.882;151.134;2023-06-26T08:35:08;1.25;;;0.63;;
16391;SDS011;8305;-33.882;151.134;2023-06-26T08:37:39;2.30;;;0.70;;
16391;SDS011;8305;-33.882;151.134;2023-06-26T08:40:10;1.90;;;0.63;;
16391;SDS011;8305;-33.882;151.134;2023-06-26T08:42:41;2.45;;;0.77;;
16391;SDS011;8305;-33.882;151.134;2023-06-26T08:45:12;2.22;;;0.70;;
16391;SDS011;8305;-33.882;151.134;2023-06-26T08:47:44;5.70;;;0.93;;
16391;SDS011;8305;-33.882;151.134;2023-06-26T08:50:17;1.98;;;0.70;;
16391;SDS011;8305;-33.882;151.134;2023-06-26T08:52:53;2.97;;;0.80;;
16391;SDS011;8305;-33.882;151.134;2023-06-26T08:55:31;2.78;;;1.02;;
16391;SDS011;8305;-33.882;151.134;2023-06-26T08:58:04;4.45;;;1.10;;
16391;SDS011;8305;-33.882;151.134;2023-06-26T09:00:35;6.93;;;1.00;;
16391;SDS011;8305;-33.882;151.134;2023-06-26T09:03:08;1.55;;;0.80;;
16391;SDS011;8305;-33.882;151.134;2023-06-26T09:05:41;1.73;;;0.70;;
16391;SDS011;8305;-33.882;151.134;2023-06-26T09:08:12;2.72;;;0.90;;
16391;SDS011;8305;-33.882;151.134;2023-06-26T09:10:43;1.63;;;1.00;;
16391;SDS011;8305;-33.882;151.134;2023-06-26T09:13:14;3.00;;;1.02;;
16391;SDS011;8305;-33.882;151.134;2023-06-26T09:15:46;2.33;;;1.08;;
16391;SDS011;8305;-33.882;151.134;2023-06-26T09:18:20;2.15;;;0.90;;
16391;SDS011;8305;-33.882;151.134;2023-06-26T09:20:51;2.10;;;0.88;;
16391;SDS011;8305;-33.882;151.134;2023-06-26T09:23:23;1.55;;;0.75;;
16391;SDS011;8305;-33.882;151.134;2023-06-26T09:25:54;1.90;;;0.90;;
16391;SDS011;8305;-33.882;151.134;2023-06-26T09:28:25;1.95;;;0.95;;
16391;SDS011;8305;-33.882;151.134;2023-06-26T09:31:02;1.42;;;0.90;;
16391;SDS011;8305;-33.882;151.134;2023-06-26T09:33:36;2.20;;;1.00;;
16391;SDS011;8305;-33.882;151.134;2023-06-26T09:36:09;2.25;;;1.10;;
16391;SDS011;8305;-33.882;151.134;2023-06-26T09:38:49;4.10;;;0.90;;
16391;SDS011;8305;-33.882;151.134;2023-06-26T09:41:20;3.10;;;0.90;;
16391;SDS011;8305;-33.882;151.134;2023-06-26T09:43:51;2.80;;;0.90;;
16391;SDS011;8305;-33.882;151.134;2023-06-26T09:46:26;3.08;;;0.90;;
16391;SDS011;8305;-33.882;151.134;2023-06-26T09:49:03;2.55;;;0.80;;
16391;SDS011;8305;-33.882;151.134;2023-06-26T09:51:35;2.72;;;0.88;;
16391;SDS011;8305;-33.882;151.134;2023-06-26T09:54:07;1.33;;;0.60;;
16391;SDS011;8305;-33.882;151.134;2023-06-26T09:56:39;1.40;;;0.65;;
16391;SDS011;8305;-33.882;151.134;2023-06-26T09:59:10;2.00;;;0.70;;
16391;SDS011;8305;-33.882;151.134;2023-06-26T10:01:45;1.30;;;0.43;;
16391;SDS011;8305;-33.882;151.134;2023-06-26T10:04:17;1.50;;;0.70;;
16391;SDS011;8305;-33.882;151.134;2023-06-26T10:06:49;1.55;;;0.50;;
16391;SDS011;8305;-33.882;151.134;2023-06-26T10:09:23;3.20;;;0.70;;
16391;SDS011;8305;-33.882;151.134;2023-06-26T10:11:55;1.83;;;0.60;;
16391;SDS011;8305;-33.882;151.134;2023-06-26T10:14:30;0.85;;;0.52;;
16391;SDS011;8305;-33.882;151.134;2023-06-26T10:17:04;2.50;;;0.60;;
16391;SDS011;8305;-33.882;151.134;2023-06-26T10:19:43;2.55;;;0.70;;
16391;SDS011;8305;-33.882;151.134;2023-06-26T10:22:14;3.10;;;0.70;;
16391;SDS011;8305;-33.882;151.134;2023-06-26T10:24:46;1.08;;;0.52;;
16391;SDS011;8305;-33.882;151.134;2023-06-26T10:27:19;2.70;;;0.63;;
16391;SDS011;8305;-33.882;151.134;2023-06-26T10:29:51;1.02;;;0.60;;
16391;SDS011;8305;-33.882;151.134;2023-06-26T10:32:25;3.60;;;0.70;;
16391;SDS011;8305;-33.882;151.134;2023-06-26T10:34:59;1.33;;;0.65;;
16391;SDS011;8305;-33.882;151.134;2023-06-26T10:40:21;2.30;;;0.73;;
16391;SDS011;8305;-33.882;151.134;2023-06-26T10:43:05;1.23;;;0.60;;
16391;SDS011;8305;-33.882;151.134;2023-06-26T10:45:37;0.65;;;0.50;;
16391;SDS011;8305;-33.882;151.134;2023-06-26T10:48:18;1.45;;;0.60;;
16391;SDS011;8305;-33.882;151.134;2023-06-26T10:50:51;2.45;;;0.80;;
16391;SDS011;8305;-33.882;151.134;2023-06-26T10:53:24;1.73;;;0.70;;
16391;SDS011;8305;-33.882;151.134;2023-06-26T10:56:01;2.90;;;0.77;;
16391;SDS011;8305;-33.882;151.134;2023-06-26T10:58:33;2.58;;;0.70;;
16391;SDS011;8305;-33.882;151.134;2023-06-26T11:01:20;2.25;;;0.70;;
16391;SDS011;8305;-33.882;151.134;2023-06-26T11:04:01;1.90;;;1.00;;
16391;SDS011;8305;-33.882;151.134;2023-06-26T11:06:36;2.92;;;1.45;;
16391;SDS011;8305;-33.882;151.134;2023-06-26T11:09:08;2.15;;;1.60;;
16391;SDS011;8305;-33.882;151.134;2023-06-26T11:11:59;3.20;;;1.35;;
16391;SDS011;8305;-33.882;151.134;2023-06-26T11:14:35;1.52;;;1.00;;
16391;SDS011;8305;-33.882;151.134;2023-06-26T11:17:07;2.92;;;1.33;;
16391;SDS011;8305;-33.882;151.134;2023-06-26T11:19:41;2.58;;;1.20;;
16391;SDS011;8305;-33.882;151.134;2023-06-26T11:22:16;2.05;;;1.00;;
16391;SDS011;8305;-33.882;151.134;2023-06-26T11:24:48;3.13;;;1.40;;
16391;SDS011;8305;-33.882;151.134;2023-06-26T11:27:21;2.00;;;0.95;;
16391;SDS011;8305;-33.882;151.134;2023-06-26T11:29:54;2.53;;;1.20;;
16391;SDS011;8305;-33.882;151.134;2023-06-26T11:32:26;2.75;;;1.00;;
16391;SDS011;8305;-33.882;151.134;2023-06-26T11:34:58;1.92;;;0.90;;
16391;SDS011;8305;-33.882;151.134;2023-06-26T11:37:33;2.05;;;1.00;;
16391;SDS011;8305;-33.882;151.134;2023-06-26T11:40:16;4.03;;;1.08;;
16391;SDS011;8305;-33.882;151.134;2023-06-26T11:42:47;2.90;;;1.00;;
16391;SDS011;8305;-33.882;151.134;2023-06-26T11:45:18;1.85;;;0.90;;
16391;SDS011;8305;-33.882;151.134;2023-06-26T11:47:49;3.83;;;1.05;;
16391;SDS011;8305;-33.882;151.134;2023-06-26T11:50:22;2.35;;;0.95;;
16391;SDS011;8305;-33.882;151.134;2023-06-26T11:52:56;1.88;;;0.80;;
16391;SDS011;8305;-33.882;151.134;2023-06-26T11:55:28;3.17;;;0.93;;
16391;SDS011;8305;-33.882;151.134;2023-06-26T11:58:11;3.13;;;1.00;;
16391;SDS011;8305;-33.882;151.134;2023-06-26T12:00:44;2.28;;;0.93;;
16391;SDS011;8305;-33.882;151.134;2023-06-26T12:03:16;1.98;;;0.90;;
16391;SDS011;8305;-33.882;151.134;2023-06-26T12:05:47;5.15;;;0.90;;
16391;SDS011;8305;-33.882;151.134;2023-06-26T12:08:20;3.22;;;0.80;;
16391;SDS011;8305;-33.882;151.134;2023-06-26T12:10:51;1.38;;;0.60;;
16391;SDS011;8305;-33.882;151.134;2023-06-26T12:13:22;1.33;;;0.73;;
16391;SDS011;8305;-33.882;151.134;2023-06-26T12:15:53;2.78;;;0.70;;
16391;SDS011;8305;-33.882;151.134;2023-06-26T12:18:24;2.65;;;0.60;;
16391;SDS011;8305;-33.882;151.134;2023-06-26T12:21:02;3.15;;;0.80;;
16391;SDS011;8305;-33.882;151.134;2023-06-26T12:23:35;2.17;;;0.70;;
16391;SDS011;8305;-33.882;151.134;2023-06-26T12:26:18;2.00;;;0.80;;
16391;SDS011;8305;-33.882;151.134;2023-06-26T12:28:50;3.80;;;0.80;;
16391;SDS011;8305;-33.882;151.134;2023-06-26T12:31:21;2.53;;;0.65;;
16391;SDS011;8305;-33.882;151.134;2023-06-26T12:33:51;2.47;;;0.77;;
16391;SDS011;8305;-33.882;151.134;2023-06-26T12:36:22;1.42;;;0.65;;
16391;SDS011;8305;-33.882;151.134;2023-06-26T12:38:55;1.67;;;0.60;;
16391;SDS011;8305;-33.882;151.134;2023-06-26T12:41:29;4.13;;;0.75;;
16391;SDS011;8305;-33.882;151.134;2023-06-26T12:44:00;1.63;;;0.57;;
16391;SDS011;8305;-33.882;151.134;2023-06-26T12:46:34;3.55;;;0.73;;
16391;SDS011;8305;-33.882;151.134;2023-06-26T12:49:05;2.40;;;0.70;;
16391;SDS011;8305;-33.882;151.134;2023-06-26T12:51:36;2.08;;;0.80;;
16391;SDS011;8305;-33.882;151.134;2023-06-26T12:54:08;3.08;;;0.85;;
16391;SDS011;8305;-33.882;151.134;2023-06-26T12:56:39;1.98;;;0.75;;
16391;SDS011;8305;-33.882;151.134;2023-06-26T12:59:10;2.45;;;0.70;;
16391;SDS011;8305;-33.882;151.134;2023-06-26T13:01:41;3.15;;;0.65;;
16391;SDS011;8305;-33.882;151.134;2023-06-26T13:04:11;4.30;;;0.73;;
16391;SDS011;8305;-33.882;151.134;2023-06-26T13:06:42;1.30;;;0.70;;
16391;SDS011;8305;-33.882;151.134;2023-06-26T13:09:15;1.90;;;0.68;;
16391;SDS011;8305;-33.882;151.134;2023-06-26T13:11:46;1.23;;;0.68;;
16391;SDS011;8305;-33.882;151.134;2023-06-26T13:14:17;2.22;;;0.60;;
16391;SDS011;8305;-33.882;151.134;2023-06-26T13:16:47;2.95;;;1.05;;
16391;SDS011;8305;-33.882;151.134;2023-06-26T13:19:20;3.45;;;1.10;;
16391;SDS011;8305;-33.882;151.134;2023-06-26T13:21:52;1.20;;;0.70;;
16391;SDS011;8305;-33.882;151.134;2023-06-26T13:24:25;1.13;;;0.70;;
16391;SDS011;8305;-33.882;151.134;2023-06-26T13:26:56;3.30;;;0.80;;
16391;SDS011;8305;-33.882;151.134;2023-06-26T13:29:28;1.35;;;0.80;;
16391;SDS011;8305;-33.882;151.134;2023-06-26T13:31:59;2.55;;;0.77;;
16391;SDS011;8305;-33.882;151.134;2023-06-26T13:34:29;2.25;;;0.90;;
16391;SDS011;8305;-33.882;151.134;2023-06-26T13:37:00;2.25;;;0.80;;
16391;SDS011;8305;-33.882;151.134;2023-06-26T13:39:34;2.88;;;1.27;;
16391;SDS011;8305;-33.882;151.134;2023-06-26T13:42:07;2.55;;;0.80;;
16391;SDS011;8305;-33.882;151.134;2023-06-26T13:44:38;1.73;;;0.65;;
16391;SDS011;8305;-33.882;151.134;2023-06-26T13:47:09;3.25;;;0.68;;
16391;SDS011;8305;-33.882;151.134;2023-06-26T13:49:41;2.45;;;0.70;;
16391;SDS011;8305;-33.882;151.134;2023-06-26T13:52:12;1.63;;;0.80;;
16391;SDS011;8305;-33.882;151.134;2023-06-26T13:54:44;2.63;;;0.77;;
16391;SDS011;8305;-33.882;151.134;2023-06-26T13:57:15;1.25;;;0.63;;
16391;SDS011;8305;-33.882;151.134;2023-06-26T13:59:48;3.92;;;1.23;;
16391;SDS011;8305;-33.882;151.134;2023-06-26T14:02:19;1.45;;;0.60;;
16391;SDS011;8305;-33.882;151.134;2023-06-26T14:04:49;3.45;;;1.00;;
16391;SDS011;8305;-33.882;151.134;2023-06-26T14:07:20;2.88;;;1.45;;
16391;SDS011;8305;-33.882;151.134;2023-06-26T14:09:53;2.10;;;0.80;;
16391;SDS011;8305;-33.882;151.134;2023-06-26T14:12:24;1.98;;;0.60;;
16391;SDS011;8305;-33.882;151.134;2023-06-26T14:14:55;2.15;;;0.80;;
16391;SDS011;8305;-33.882;151.134;2023-06-26T14:17:25;3.10;;;0.88;;
16391;SDS011;8305;-33.882;151.134;2023-06-26T14:19:56;3.30;;;0.90;;
16391;SDS011;8305;-33.882;151.134;2023-06-26T14:22:27;4.13;;;0.90;;
16391;SDS011;8305;-33.882;151.134;2023-06-26T14:25:01;1.40;;;0.65;;
16391;SDS011;8305;-33.882;151.134;2023-06-26T14:27:31;1.27;;;0.55;;
16391;SDS011;8305;-33.882;151.134;2023-06-26T14:30:02;2.85;;;0.90;;
16391;SDS011;8305;-33.882;151.134;2023-06-26T14:32:34;3.17;;;0.70;;
16391;SDS011;8305;-33.882;151.134;2023-06-26T14:35:05;4.05;;;0.70;;
16391;SDS011;8305;-33.882;151.134;2023-06-26T14:37:36;3.20;;;0.70;;
16391;SDS011;8305;-33.882;151.134;2023-06-26T14:40:09;4.07;;;0.80;;
16391;SDS011;8305;-33.882;151.134;2023-06-26T14:42:42;1.15;;;0.40;;
16391;SDS011;8305;-33.882;151.134;2023-06-26T14:45:13;1.13;;;0.40;;
16391;SDS011;8305;-33.882;151.134;2023-06-26T14:47:44;2.30;;;0.57;;
16391;SDS011;8305;-33.882;151.134;2023-06-26T14:50:15;1.85;;;0.50;;
16391;SDS011;8305;-33.882;151.134;2023-06-26T14:52:46;1.70;;;0.47;;